Time;durP1;ratioP1;P1;durP2;ratioP2;P2;SDS_P1;SDS_P2;PMS_P1;PMS_P2;Temp;Humidity;BMP_temperature;BMP_pressure;BME280_temperature;BME280_humidity;BME280_pressure;Samples;Min_cycle;Max_cycle;Signal;HPM_P1;HPM_P2
2023/02/07 00:00:44;;;;;;;33.92;12.30;;;4.60;99.90;;;;;;5075634;28;20115;-94
2023/02/07 00:03:09;;;;;;;35.92;11.88;;;4.60;99.90;;;;;;5075318;28;20032;-94
2023/02/07 00:05:35;;;;;;;29.42;10.13;;;4.60;99.90;;;;;;5042075;28;20013;-94
2023/02/07 00:08:03;;;;;;;27.17;10.90;;;4.60;99.90;;;;;;5058976;28;20028;-94
2023/02/07 00:10:28;;;;;;;25.10;10.63;;;4.60;99.90;;;;;;5059256;28;20021;-94
2023/02/07 00:12:54;;;;;;;28.88;11.55;;;4.50;99.90;;;;;;5057493;28;20098;-85
2023/02/07 00:15:20;;;;;;;27.65;11.85;;;4.60;99.90;;;;;;5057457;28;20500;-85
2023/02/07 00:17:45;;;;;;;31.83;11.43;;;4.50;99.90;;;;;;5075333;28;20512;-85
2023/02/07 00:20:11;;;;;;;24.02;10.30;;;4.50;99.90;;;;;;5040913;28;20519;-85
2023/02/07 00:22:37;;;;;;;34.35;10.98;;;4.50;99.90;;;;;;5074537;28;20021;-85
2023/02/07 00:25:04;;;;;;;28.55;12.38;;;4.50;99.90;;;;;;5073754;28;20029;-85
2023/02/07 00:27:30;;;;;;;30.55;12.30;;;4.40;99.90;;;;;;5074010;28;20120;-93
2023/02/07 00:29:55;;;;;;;28.52;11.90;;;4.40;99.90;;;;;;5058316;28;20033;-94
2023/02/07 00:32:21;;;;;;;33.08;12.57;;;4.40;99.90;;;;;;5041763;28;20025;-94
2023/02/07 00:34:49;;;;;;;31.15;11.48;;;4.40;99.90;;;;;;5058315;28;20020;-94
2023/02/07 00:37:15;;;;;;;26.77;10.85;;;4.30;99.90;;;;;;5058144;28;20031;-89
2023/02/07 00:39:41;;;;;;;25.42;11.07;;;4.30;99.90;;;;;;5074538;28;20071;-88
2023/02/07 00:42:07;;;;;;;30.35;12.15;;;4.30;99.90;;;;;;5075636;28;20474;-89
2023/02/07 00:44:33;;;;;;;25.33;10.48;;;4.30;99.90;;;;;;5061252;28;20039;-94
2023/02/07 00:46:59;;;;;;;29.98;12.60;;;4.20;99.90;;;;;;5070583;28;20027;-93
2023/02/07 00:49:24;;;;;;;28.52;11.45;;;4.20;99.90;;;;;;5075411;28;20043;-94
2023/02/07 00:51:50;;;;;;;24.80;10.82;;;4.20;99.90;;;;;;5068205;28;20074;-94
2023/02/07 00:54:16;;;;;;;25.58;11.10;;;4.20;99.90;;;;;;5094743;28;20032;-93
2023/02/07 00:56:42;;;;;;;30.67;12.27;;;4.10;99.90;;;;;;5071890;28;20028;-94
2023/02/07 00:59:07;;;;;;;27.92;11.82;;;4.10;99.90;;;;;;5080547;28;20039;-94
2023/02/07 01:01:33;;;;;;;31.20;11.57;;;4.10;99.90;;;;;;5085972;28;20028;-89
2023/02/07 01:03:59;;;;;;;26.00;12.27;;;4.00;99.90;;;;;;5061188;28;20041;-94
2023/02/07 01:06:26;;;;;;;24.63;11.05;;;4.10;99.90;;;;;;5095588;28;20033;-94
2023/02/07 01:08:56;;;;;;;33.42;12.85;;;4.10;99.90;;;;;;5061420;28;20023;-94
2023/02/07 01:11:22;;;;;;;29.65;11.43;;;4.00;99.90;;;;;;5062067;28;20095;-94
2023/02/07 01:13:48;;;;;;;33.70;13.13;;;4.00;99.90;;;;;;5077490;28;20385;-94
2023/02/07 01:16:19;;;;;;;37.45;13.60;;;3.90;99.90;;;;;;5077232;28;20089;-94
2023/02/07 01:18:45;;;;;;;32.60;12.27;;;3.90;99.90;;;;;;5076753;28;20036;-84
2023/02/07 01:21:19;;;;;;;28.20;12.13;;;3.90;99.90;;;;;;5076031;28;20495;-84
2023/02/07 01:23:45;;;;;;;34.95;13.13;;;3.90;99.90;;;;;;5076921;28;20039;-90
2023/02/07 01:26:11;;;;;;;25.20;11.38;;;3.80;99.90;;;;;;5060326;28;20024;-89
2023/02/07 01:28:36;;;;;;;32.75;11.45;;;3.80;99.90;;;;;;5080129;28;20073;-89
2023/02/07 01:31:10;;;;;;;35.00;11.70;;;3.80;99.90;;;;;;5079782;28;20016;-89
2023/02/07 01:33:36;;;;;;;40.05;12.20;;;3.80;99.90;;;;;;5076304;28;20093;-84
2023/02/07 01:36:11;;;;;;;34.25;12.85;;;3.80;99.90;;;;;;5096485;28;20012;-94
2023/02/07 01:38:37;;;;;;;26.42;11.73;;;3.70;99.90;;;;;;5084737;28;20103;-94
2023/02/07 01:41:03;;;;;;;30.33;12.23;;;3.70;99.90;;;;;;5079262;28;20040;-94
2023/02/07 01:43:30;;;;;;;24.17;11.55;;;3.70;99.90;;;;;;5077394;28;20455;-94
2023/02/07 01:45:56;;;;;;;30.67;11.95;;;3.70;99.90;;;;;;5060453;28;20021;-94
2023/02/07 01:48:28;;;;;;;24.52;10.90;;;3.70;99.90;;;;;;5060622;28;20154;-93
2023/02/07 01:50:59;;;;;;;30.30;12.35;;;3.60;99.90;;;;;;5077383;28;20016;-85
2023/02/07 01:53:26;;;;;;;30.17;12.32;;;3.60;99.90;;;;;;5093958;28;20035;-85
2023/02/07 01:55:55;;;;;;;28.17;11.85;;;3.60;99.90;;;;;;5075895;28;20024;-85
2023/02/07 01:58:22;;;;;;;31.67;13.23;;;3.60;99.90;;;;;;5075667;28;20070;-85
2023/02/07 02:00:48;;;;;;;32.90;12.55;;;3.50;99.90;;;;;;5075953;28;20024;-85
2023/02/07 02:03:14;;;;;;;37.28;12.45;;;3.60;99.90;;;;;;5075947;28;20472;-85
2023/02/07 02:05:42;;;;;;;30.08;11.55;;;3.50;99.90;;;;;;5059117;28;20115;-85
2023/02/07 02:08:08;;;;;;;25.85;12.27;;;3.50;99.90;;;;;;5059180;28;20464;-84
2023/02/07 02:10:56;;;;;;;28.48;12.65;;;3.50;99.90;;;;;;5058797;28;20032;-84
2023/02/07 02:13:43;;;;;;;28.00;13.50;;;3.50;99.90;;;;;;5068978;28;20036;-84
2023/02/07 02:16:19;;;;;;;28.95;12.68;;;3.40;99.90;;;;;;5094192;28;20425;-84
2023/02/07 02:18:53;;;;;;;38.67;12.77;;;3.40;99.90;;;;;;5075745;28;20427;-85
2023/02/07 02:21:53;;;;;;;29.77;14.13;;;3.40;99.90;;;;;;5093591;28;20027;-84
2023/02/07 02:24:52;;;;;;;31.33;13.00;;;3.40;99.90;;;;;;5075627;28;20366;-94
2023/02/07 02:27:36;;;;;;;35.00;13.85;;;3.40;99.90;;;;;;5076699;28;20021;-93
2023/02/07 02:30:34;;;;;;;39.75;13.65;;;3.30;99.90;;;;;;5076589;28;20024;-94
2023/02/07 02:33:09;;;;;;;30.25;13.48;;;3.30;99.90;;;;;;5076897;28;20028;-94
2023/02/07 02:35:56;;;;;;;36.63;15.27;;;3.30;99.90;;;;;;5077007;28;20126;-93
2023/02/07 02:38:41;;;;;;;36.40;14.00;;;3.20;99.90;;;;;;5080521;28;20103;-94
2023/02/07 02:41:14;;;;;;;37.17;14.60;;;3.20;99.90;;;;;;5098459;28;20028;-89
2023/02/07 02:44:00;;;;;;;36.40;14.55;;;3.20;99.90;;;;;;5080607;28;20040;-89
2023/02/07 02:46:27;;;;;;;37.53;15.55;;;3.20;99.90;;;;;;5079947;28;20031;-89
2023/02/07 02:48:55;;;;;;;39.05;16.60;;;3.20;99.90;;;;;;5098017;28;20538;-89
2023/02/07 02:51:20;;;;;;;33.47;15.02;;;3.20;99.90;;;;;;5063352;28;20039;-89
2023/02/07 02:53:54;;;;;;;36.22;14.38;;;3.20;99.90;;;;;;5079674;28;20032;-89
2023/02/07 02:56:44;;;;;;;33.63;14.35;;;3.10;99.90;;;;;;5079681;28;20023;-89
2023/02/07 02:59:31;;;;;;;30.98;14.85;;;3.10;99.90;;;;;;5098586;28;20072;-94
2023/02/07 03:02:15;;;;;;;34.60;14.80;;;3.00;99.90;;;;;;5079958;28;20484;-94
2023/02/07 03:04:56;;;;;;;33.33;14.77;;;3.10;99.90;;;;;;5079892;28;20465;-84
2023/02/07 03:07:24;;;;;;;34.83;15.88;;;3.00;99.90;;;;;;5097037;28;20080;-84
2023/02/07 03:10:09;;;;;;;34.10;16.98;;;3.00;99.90;;;;;;5078504;28;20039;-84
2023/02/07 03:13:16;;;;;;;36.83;16.30;;;3.00;99.90;;;;;;5078694;28;20096;-84
2023/02/07 03:16:01;;;;;;;38.83;16.42;;;3.00;99.90;;;;;;5078753;28;20039;-94
2023/02/07 03:18:40;;;;;;;36.00;15.82;;;3.00;99.90;;;;;;5079660;28;20122;-94
2023/02/07 03:21:31;;;;;;;30.85;14.80;;;2.90;99.90;;;;;;5079611;28;20040;-94
2023/02/07 03:23:59;;;;;;;;;;;2.90;99.90;;;;;;5093027;28;20441;-94
2023/02/07 03:26:26;;;;;;;36.65;14.55;;;2.90;99.90;;;;;;5079446;28;19908;-94
2023/02/07 03:28:55;;;;;;;40.42;17.27;;;2.80;99.90;;;;;;5078708;28;20030;-84
2023/02/07 03:31:24;;;;;;;30.67;15.50;;;2.80;99.90;;;;;;5078207;28;20013;-86
2023/02/07 03:33:54;;;;;;;32.78;15.32;;;2.80;99.90;;;;;;5078339;28;20064;-85
2023/02/07 03:36:32;;;;;;;40.47;16.15;;;2.80;99.90;;;;;;5078609;28;20028;-85
2023/02/07 03:38:58;;;;;;;36.83;16.33;;;2.80;99.90;;;;;;5078265;28;20027;-85
2023/02/07 03:41:55;;;;;;;36.85;15.90;;;2.80;99.90;;;;;;5061390;28;20080;-85
2023/02/07 03:44:24;;;;;;;36.58;16.02;;;2.70;99.90;;;;;;5074216;28;20040;-85
2023/02/07 03:46:50;;;;;;;31.42;14.77;;;2.70;99.90;;;;;;5096048;28;20318;-85
2023/02/07 03:49:16;;;;;;;32.58;17.10;;;2.60;99.90;;;;;;5083127;28;20024;-84
2023/02/07 03:51:46;;;;;;;32.95;15.68;;;2.70;99.90;;;;;;5061416;28;20035;-84
2023/02/07 03:54:11;;;;;;;40.72;16.75;;;2.60;99.90;;;;;;5096218;28;20024;-84
2023/02/07 03:56:37;;;;;;;33.47;15.55;;;2.60;99.90;;;;;;5077997;28;20034;-84
2023/02/07 03:59:03;;;;;;;31.83;15.48;;;2.60;99.90;;;;;;5096100;28;20491;-85
2023/02/07 04:01:29;;;;;;;41.85;18.02;;;2.60;99.90;;;;;;5077710;28;20069;-85
2023/02/07 04:03:55;;;;;;;35.65;16.48;;;2.50;99.90;;;;;;5077830;28;20036;-85
2023/02/07 04:06:21;;;;;;;34.20;16.23;;;2.50;99.90;;;;;;5062189;28;20061;-85
2023/02/07 04:08:46;;;;;;;30.42;15.48;;;2.50;99.90;;;;;;5061118;28;20024;-85
2023/02/07 04:11:12;;;;;;;42.42;18.02;;;2.50;99.90;;;;;;5077669;28;20107;-85
2023/02/07 04:13:38;;;;;;;36.92;15.52;;;2.40;99.90;;;;;;5078297;28;20032;-85
2023/02/07 04:16:05;;;;;;;38.13;16.50;;;2.40;99.90;;;;;;5061167;28;20024;-85
2023/02/07 04:18:30;;;;;;;34.92;16.30;;;2.40;99.90;;;;;;5078125;28;20028;-85
2023/02/07 04:21:05;;;;;;;36.67;17.25;;;2.50;99.90;;;;;;5078348;28;20537;-85
2023/02/07 04:23:32;;;;;;;35.67;17.15;;;2.40;99.90;;;;;;5077463;28;20169;-85
2023/02/07 04:25:58;;;;;;;35.00;16.38;;;2.40;99.90;;;;;;5095487;28;20028;-84
2023/02/07 04:28:24;;;;;;;35.20;16.20;;;2.30;99.90;;;;;;5077723;28;20382;-85
2023/02/07 04:30:50;;;;;;;36.05;16.55;;;2.40;99.90;;;;;;5095658;28;20088;-85
2023/02/07 04:33:16;;;;;;;38.65;16.85;;;2.30;99.90;;;;;;5077652;28;20099;-85
2023/02/07 04:35:41;;;;;;;38.70;18.02;;;2.30;99.90;;;;;;5060838;28;20077;-85
2023/02/07 04:38:07;;;;;;;37.90;17.45;;;2.40;99.90;;;;;;5077455;28;20119;-84
2023/02/07 04:40:33;;;;;;;31.10;16.42;;;2.30;99.90;;;;;;5077165;28;20381;-84
2023/02/07 04:42:59;;;;;;;36.40;15.68;;;2.30;99.90;;;;;;5060863;28;20477;-83
2023/02/07 04:45:24;;;;;;;39.35;17.23;;;2.30;99.90;;;;;;5060573;28;20085;-83
2023/02/07 04:47:50;;;;;;;36.80;16.60;;;2.20;99.90;;;;;;5060543;28;20026;-83
2023/02/07 04:50:16;;;;;;;38.55;16.58;;;2.20;99.90;;;;;;5060195;28;20114;-84
2023/02/07 04:52:42;;;;;;;37.53;16.83;;;2.20;99.90;;;;;;5060414;28;20110;-84
2023/02/07 04:55:08;;;;;;;36.42;16.08;;;2.20;99.90;;;;;;5060101;28;20127;-85
2023/02/07 04:57:34;;;;;;;40.08;18.10;;;2.10;99.90;;;;;;5094952;28;20024;-85
2023/02/07 05:00:00;;;;;;;42.63;18.98;;;2.20;99.90;;;;;;5059157;28;20035;-85
2023/02/07 05:02:26;;;;;;;40.10;17.98;;;2.20;99.90;;;;;;5076438;28;20032;-85
2023/02/07 05:04:51;;;;;;;51.53;20.95;;;2.10;99.90;;;;;;5059920;28;20050;-85
2023/02/07 05:07:17;;;;;;;55.25;21.88;;;2.10;99.90;;;;;;5076742;28;20476;-85
2023/02/07 05:09:43;;;;;;;48.22;20.27;;;2.10;99.90;;;;;;5076484;28;20469;-85
2023/02/07 05:12:09;;;;;;;56.83;22.80;;;2.10;99.90;;;;;;5076884;28;20048;-85
2023/02/07 05:14:34;;;;;;;46.33;21.33;;;2.10;99.90;;;;;;5095353;28;20039;-85
2023/02/07 05:17:00;;;;;;;44.65;20.23;;;2.10;99.90;;;;;;5094466;28;20021;-85
2023/02/07 05:19:26;;;;;;;55.35;21.70;;;2.00;99.90;;;;;;5076684;28;20032;-85
2023/02/07 05:21:52;;;;;;;48.38;21.98;;;2.00;99.90;;;;;;5059531;28;20381;-85
2023/02/07 05:24:37;;;;;;;54.55;21.67;;;2.10;99.90;;;;;;5059707;28;20035;-85
2023/02/07 05:27:03;;;;;;;55.42;22.05;;;2.00;99.90;;;;;;5094553;28;20385;-84
2023/02/07 05:29:29;;;;;;;55.78;23.38;;;2.00;99.90;;;;;;5061306;28;20028;-92
2023/02/07 05:34:39;;;;;;;54.78;22.48;;;1.90;99.90;;;;;;5080922;28;20031;-92
2023/02/07 05:37:04;;;;;;;62.40;24.33;;;1.90;99.90;;;;;;5060323;28;20032;-92
2023/02/07 05:39:30;;;;;;;59.17;24.33;;;1.80;99.90;;;;;;5060609;28;20028;-93
2023/02/07 05:41:56;;;;;;;65.47;25.02;;;1.80;99.90;;;;;;5060225;28;20496;-92
2023/02/07 05:44:22;;;;;;;65.10;26.38;;;1.80;99.90;;;;;;5057227;28;20052;-89
2023/02/07 05:46:47;;;;;;;70.43;25.48;;;1.80;99.90;;;;;;5077291;28;20035;-88
2023/02/07 05:49:13;;;;;;;102.47;27.63;;;1.70;99.90;;;;;;5043130;28;20013;-89
2023/02/07 05:51:39;;;;;;;79.78;28.17;;;1.70;99.90;;;;;;5041657;28;20036;-85
2023/02/07 05:54:04;;;;;;;74.05;27.45;;;1.70;99.90;;;;;;5072741;28;20029;-84
2023/02/07 05:56:30;;;;;;;88.82;28.55;;;1.70;99.90;;;;;;5073006;28;20040;-93
2023/02/07 05:58:56;;;;;;;97.30;28.75;;;1.70;99.90;;;;;;5058049;28;20029;-92
2023/02/07 06:01:21;;;;;;;111.57;27.73;;;1.70;99.90;;;;;;5041103;28;20028;-88
2023/02/07 06:03:47;;;;;;;92.60;28.60;;;1.70;99.90;;;;;;5073651;28;20100;-89
2023/02/07 06:06:13;;;;;;;101.15;29.17;;;1.60;99.90;;;;;;5074434;28;20120;-88
2023/02/07 06:08:38;;;;;;;83.65;27.98;;;1.60;99.90;;;;;;5073438;28;20031;-89
2023/02/07 06:11:04;;;;;;;104.63;28.48;;;1.70;99.90;;;;;;5041251;28;20044;-88
2023/02/07 06:13:30;;;;;;;86.07;28.42;;;1.60;99.90;;;;;;5060884;28;20035;-89
2023/02/07 06:15:55;;;;;;;81.32;28.80;;;1.70;99.90;;;;;;5061054;28;20469;-88
2023/02/07 06:18:24;;;;;;;86.63;29.77;;;1.70;99.90;;;;;;5060190;28;20115;-85
2023/02/07 06:20:50;;;;;;;82.88;28.42;;;1.70;99.90;;;;;;5078833;28;20044;-84
2023/02/07 06:23:16;;;;;;;85.47;27.58;;;1.70;99.90;;;;;;5077864;28;20086;-85
2023/02/07 06:25:41;;;;;;;89.00;28.42;;;1.70;99.90;;;;;;5059714;28;20028;-85
2023/02/07 06:28:07;;;;;;;91.82;27.63;;;1.70;99.90;;;;;;5087522;28;20029;-86
2023/02/07 06:30:33;;;;;;;90.22;28.52;;;1.70;99.90;;;;;;5067706;28;20028;-85
2023/02/07 06:32:59;;;;;;;95.22;28.55;;;1.80;99.90;;;;;;5091196;28;20103;-84
2023/02/07 06:35:24;;;;;;;80.20;27.58;;;1.70;99.90;;;;;;5083335;28;20031;-84
2023/02/07 06:37:50;;;;;;;89.57;28.40;;;1.70;99.90;;;;;;5060587;28;20056;-84
2023/02/07 06:40:16;;;;;;;110.55;28.38;;;1.70;99.90;;;;;;5076064;28;20050;-84
2023/02/07 06:42:43;;;;;;;79.65;26.85;;;1.70;99.90;;;;;;5083956;28;20398;-84
2023/02/07 06:45:09;;;;;;;97.85;27.20;;;1.70;99.90;;;;;;5079606;28;20024;-84
2023/02/07 06:47:34;;;;;;;73.07;26.00;;;1.70;99.90;;;;;;5064340;28;20024;-83
2023/02/07 06:50:00;;;;;;;93.63;26.90;;;1.70;99.90;;;;;;5079854;28;20043;-84
2023/02/07 06:52:26;;;;;;;81.75;26.67;;;1.70;99.90;;;;;;5079534;28;20032;-85
2023/02/07 06:54:51;;;;;;;90.70;27.20;;;1.60;99.90;;;;;;5062790;28;20453;-84
2023/02/07 06:57:17;;;;;;;92.18;27.45;;;1.70;99.90;;;;;;5063030;28;20025;-85
2023/02/07 06:59:43;;;;;;;97.55;28.52;;;1.60;99.90;;;;;;5079640;28;20024;-85
2023/02/07 07:02:13;;;;;;;80.40;24.90;;;1.70;99.90;;;;;;5063772;28;20024;-85
2023/02/07 07:04:41;;;;;;;98.80;26.80;;;1.60;99.90;;;;;;5081034;28;20126;-85
2023/02/07 07:07:07;;;;;;;92.57;24.48;;;1.60;99.90;;;;;;5063485;28;20468;-84
2023/02/07 07:09:33;;;;;;;73.88;25.05;;;1.60;99.90;;;;;;5080577;28;20491;-85
2023/02/07 07:11:59;;;;;;;84.65;27.75;;;1.60;99.90;;;;;;5069354;28;20020;-84
2023/02/07 07:14:25;;;;;;;115.30;28.33;;;1.60;99.90;;;;;;5083851;28;20036;-85
2023/02/07 07:16:50;;;;;;;101.25;26.08;;;1.60;99.90;;;;;;5082048;28;20028;-85
2023/02/07 07:19:16;;;;;;;72.85;25.38;;;1.60;99.90;;;;;;5083159;28;20020;-85
2023/02/07 07:21:42;;;;;;;68.18;25.33;;;1.60;99.90;;;;;;5065414;28;20498;-86
2023/02/07 07:24:07;;;;;;;79.18;26.95;;;1.60;99.90;;;;;;5099074;28;20438;-86
2023/02/07 07:26:33;;;;;;;64.57;25.90;;;1.50;99.90;;;;;;5065036;28;20024;-89
2023/02/07 07:28:59;;;;;;;63.05;23.63;;;1.50;99.90;;;;;;5080808;28;20081;-90
2023/02/07 07:31:26;;;;;;;58.38;23.33;;;1.50;99.90;;;;;;5062779;28;20020;-90
2023/02/07 07:33:53;;;;;;;73.57;25.63;;;1.50;99.90;;;;;;5080609;28;20031;-90
2023/02/07 07:36:19;;;;;;;68.28;25.08;;;1.50;99.90;;;;;;5064193;28;20126;-89
2023/02/07 07:38:45;;;;;;;73.78;24.05;;;1.50;99.90;;;;;;5098884;28;20169;-89
2023/02/07 07:41:11;;;;;;;61.85;23.05;;;1.50;99.90;;;;;;5093452;28;20110;-85
2023/02/07 07:43:36;;;;;;;66.05;22.83;;;1.50;99.90;;;;;;5116793;28;20043;-86
2023/02/07 07:46:02;;;;;;;57.35;22.48;;;1.40;99.90;;;;;;5098485;28;20027;-85
2023/02/07 07:48:28;;;;;;;49.15;22.45;;;1.40;99.90;;;;;;5098466;28;20046;-85
2023/02/07 07:50:54;;;;;;;61.70;22.40;;;1.40;99.90;;;;;;5081436;28;20082;-85
2023/02/07 07:53:20;;;;;;;55.05;22.00;;;1.40;99.90;;;;;;5116529;28;20032;-85
2023/02/07 07:55:50;;;;;;;66.88;23.40;;;1.30;99.90;;;;;;5097712;28;20043;-85
2023/02/07 07:58:16;;;;;;;58.95;21.38;;;1.30;99.90;;;;;;5065407;28;20053;-89
2023/02/07 08:00:42;;;;;;;70.13;22.08;;;1.30;99.90;;;;;;5078595;28;20107;-89
2023/02/07 08:03:18;;;;;;;71.10;22.75;;;1.30;99.90;;;;;;5081663;28;20058;-89
2023/02/07 08:05:44;;;;;;;75.32;23.15;;;1.20;99.90;;;;;;5098855;28;20072;-90
2023/02/07 08:08:10;;;;;;;68.07;21.13;;;1.20;99.90;;;;;;5082006;28;20027;-89
2023/02/07 08:10:36;;;;;;;65.22;25.08;;;1.20;99.90;;;;;;5085478;28;20106;-90
2023/02/07 08:13:02;;;;;;;63.55;21.98;;;1.10;99.90;;;;;;5098435;28;20126;-89
2023/02/07 08:15:28;;;;;;;86.00;23.10;;;1.20;99.90;;;;;;5081515;28;20123;-89
2023/02/07 08:17:54;;;;;;;110.07;23.38;;;1.10;99.90;;;;;;5086067;28;20448;-90
2023/02/07 08:20:19;;;;;;;79.05;22.08;;;1.20;99.90;;;;;;5079786;28;20095;-89
2023/02/07 08:22:45;;;;;;;64.10;21.58;;;1.20;99.90;;;;;;5081494;28;20031;-89
2023/02/07 08:25:11;;;;;;;64.70;23.65;;;1.20;99.90;;;;;;5063809;28;20024;-89
2023/02/07 08:27:38;;;;;;;63.58;24.10;;;1.20;99.90;;;;;;5098295;28;20024;-89
2023/02/07 08:30:06;;;;;;;54.03;20.42;;;1.20;99.90;;;;;;5100206;28;20027;-88
2023/02/07 08:32:32;;;;;;;53.08;21.67;;;1.20;99.90;;;;;;5101436;28;20019;-92
2023/02/07 08:34:57;;;;;;;51.40;21.95;;;1.20;99.90;;;;;;5083618;28;20024;-93
2023/02/07 08:37:23;;;;;;;56.63;19.52;;;1.20;99.90;;;;;;5085040;28;20019;-92
2023/02/07 08:39:51;;;;;;;52.35;20.02;;;1.10;99.90;;;;;;5084402;28;20464;-92
2023/02/07 08:42:19;;;;;;;50.63;20.00;;;1.10;99.90;;;;;;5080913;28;20027;-92
2023/02/07 08:44:48;;;;;;;53.80;20.00;;;1.10;99.90;;;;;;5098433;28;20031;-92
2023/02/07 08:47:15;;;;;;;73.70;21.58;;;1.00;99.90;;;;;;5098847;28;20034;-94
2023/02/07 08:49:41;;;;;;;60.05;22.15;;;1.00;99.90;;;;;;5080005;28;20024;-84
2023/02/07 08:52:08;;;;;;;65.65;23.35;;;1.00;99.90;;;;;;5114723;28;20020;-85
2023/02/07 08:54:33;;;;;;;59.53;23.52;;;1.00;99.90;;;;;;5097316;28;20063;-85
2023/02/07 08:56:59;;;;;;;57.00;22.75;;;1.00;99.90;;;;;;5062922;28;20495;-85
2023/02/07 08:59:25;;;;;;;63.10;23.75;;;1.00;99.90;;;;;;5096501;28;20111;-85
2023/02/07 09:01:51;;;;;;;52.83;22.10;;;1.10;99.90;;;;;;5077337;28;20035;-85
2023/02/07 09:04:16;;;;;;;62.15;24.35;;;1.00;99.90;;;;;;5091904;28;20057;-92
2023/02/07 09:06:42;;;;;;;61.63;24.23;;;1.00;99.90;;;;;;5080655;28;20046;-92
2023/02/07 09:09:09;;;;;;;74.95;24.80;;;0.90;99.90;;;;;;5072571;28;20034;-92
2023/02/07 09:11:35;;;;;;;69.25;25.33;;;0.90;99.90;;;;;;5059908;28;20019;-92
2023/02/07 09:14:01;;;;;;;68.38;24.40;;;1.00;99.90;;;;;;5097566;28;20494;-93
2023/02/07 09:16:27;;;;;;;65.45;25.52;;;1.00;99.90;;;;;;5097525;28;20027;-93
2023/02/07 09:18:59;;;;;;;80.88;29.60;;;1.00;99.90;;;;;;5097834;28;20023;-92
2023/02/07 09:21:24;;;;;;;87.22;30.75;;;1.10;99.90;;;;;;5063640;28;20119;-89
2023/02/07 09:23:52;;;;;;;89.68;30.85;;;1.10;99.90;;;;;;5084292;28;20047;-88
2023/02/07 09:26:20;;;;;;;78.55;29.50;;;1.10;99.90;;;;;;5100220;28;20503;-89
2023/02/07 09:28:46;;;;;;;86.20;30.00;;;1.00;99.90;;;;;;5111031;28;20023;-89
2023/02/07 09:31:13;;;;;;;89.55;31.48;;;1.10;99.90;;;;;;5096639;28;20020;-89
2023/02/07 09:33:40;;;;;;;103.50;34.50;;;1.10;99.90;;;;;;5080168;28;20437;-89
2023/02/07 09:36:18;;;;;;;108.43;33.05;;;1.10;99.90;;;;;;5079952;28;20122;-89
2023/02/07 09:38:44;;;;;;;101.35;32.78;;;1.10;99.90;;;;;;5099151;28;20110;-92
2023/02/07 09:41:37;;;;;;;103.70;32.13;;;1.20;99.90;;;;;;5063692;28;20067;-90
2023/02/07 09:44:17;;;;;;;113.50;34.53;;;1.30;99.90;;;;;;5125462;28;20100;-89
2023/02/07 09:47:00;;;;;;;95.40;33.10;;;1.30;99.90;;;;;;5112719;28;20076;-89
2023/02/07 09:49:50;;;;;;;103.68;31.88;;;1.30;99.90;;;;;;5103987;28;20477;-90
2023/02/07 09:52:21;;;;;;;126.30;35.55;;;1.40;99.90;;;;;;5099637;28;20020;-90
2023/02/07 09:54:51;;;;;;;108.70;32.85;;;1.40;99.90;;;;;;5108089;28;20032;-89
2023/02/07 09:57:26;;;;;;;91.03;31.65;;;1.40;99.90;;;;;;5096925;28;20610;-89
2023/02/07 09:59:52;;;;;;;85.45;31.88;;;1.40;99.90;;;;;;5099369;28;20384;-89
2023/02/07 10:02:31;;;;;;;84.60;31.30;;;1.40;99.90;;;;;;5115191;28;20019;-91
2023/02/07 10:05:06;;;;;;;72.97;28.70;;;1.40;99.90;;;;;;5096245;28;20051;-89
2023/02/07 10:07:32;;;;;;;69.97;27.75;;;1.50;99.90;;;;;;5095904;28;20019;-90
2023/02/07 10:09:58;;;;;;;76.63;29.35;;;1.50;99.90;;;;;;5078907;28;20380;-90
2023/02/07 10:12:44;;;;;;;61.88;25.90;;;1.50;99.90;;;;;;5062689;28;20020;-90
2023/02/07 10:15:21;;;;;;;68.40;27.10;;;1.60;99.90;;;;;;5096315;28;20028;-90
2023/02/07 10:18:06;;;;;;;54.40;23.80;;;1.70;99.90;;;;;;5106143;28;20353;-90
2023/02/07 10:21:14;;;;;;;42.35;20.85;;;1.70;99.90;;;;;;5095822;28;20019;-90
2023/02/07 10:24:10;;;;;;;44.35;21.42;;;1.80;99.90;;;;;;5072261;28;20488;-90
2023/02/07 10:26:40;;;;;;;44.97;21.60;;;1.90;99.90;;;;;;5093802;28;20024;-90
2023/02/07 10:29:28;;;;;;;43.88;20.50;;;1.90;99.90;;;;;;5095061;28;20341;-84
2023/02/07 10:31:58;;;;;;;40.60;19.10;;;2.00;99.90;;;;;;5095397;28;20055;-84
2023/02/07 10:34:29;;;;;;;41.83;19.38;;;2.00;99.90;;;;;;5114184;28;20016;-84
2023/02/07 10:36:57;;;;;;;38.42;17.23;;;2.10;99.90;;;;;;5113507;28;20031;-84
2023/02/07 10:39:37;;;;;;;35.72;17.35;;;2.20;99.90;;;;;;5113475;28;20349;-85
2023/02/07 10:42:03;;;;;;;30.07;16.20;;;2.30;99.90;;;;;;5094079;28;20039;-84
2023/02/07 10:44:29;;;;;;;33.35;15.95;;;2.40;99.90;;;;;;5075420;28;20044;-85
2023/02/07 10:47:01;;;;;;;31.95;15.45;;;2.40;99.90;;;;;;5086445;28;20016;-85
2023/02/07 10:49:31;;;;;;;28.52;16.10;;;2.50;99.90;;;;;;5104121;28;20023;-84
2023/02/07 10:52:18;;;;;;;28.58;14.75;;;2.60;99.90;;;;;;5103024;28;20024;-85
2023/02/07 10:54:53;;;;;;;28.42;14.43;;;2.70;99.90;;;;;;5101145;28;20093;-85
2023/02/07 10:57:20;;;;;;;25.48;13.40;;;2.80;99.90;;;;;;5117843;28;20035;-85
2023/02/07 10:59:46;;;;;;;21.98;12.55;;;2.90;99.90;;;;;;5099010;28;20023;-84
2023/02/07 11:02:27;;;;;;;19.92;11.20;;;3.00;99.90;;;;;;5098476;28;20027;-85
2023/02/07 11:04:54;;;;;;;20.95;12.20;;;3.00;99.90;;;;;;5117315;28;20379;-86
2023/02/07 11:07:21;;;;;;;22.20;12.35;;;3.20;99.90;;;;;;5098724;28;20011;-85
2023/02/07 11:09:48;;;;;;;23.35;12.43;;;3.30;99.90;;;;;;5099045;28;20074;-85
2023/02/07 11:12:20;;;;;;;20.75;11.90;;;3.40;99.90;;;;;;5098175;28;20349;-85
2023/02/07 11:15:04;;;;;;;17.95;9.70;;;3.40;99.90;;;;;;5116911;28;20035;-85
2023/02/07 11:17:33;;;;;;;19.13;10.57;;;3.50;99.90;;;;;;5098737;28;20042;-85
2023/02/07 11:20:04;;;;;;;19.33;10.90;;;3.70;99.90;;;;;;5098310;28;20424;-85
2023/02/07 11:22:30;;;;;;;17.70;9.63;;;3.80;99.90;;;;;;5116166;28;20491;-86
2023/02/07 11:25:03;;;;;;;17.85;9.82;;;3.80;99.90;;;;;;5099338;28;20027;-94
2023/02/07 11:27:37;;;;;;;17.63;10.25;;;4.00;99.90;;;;;;5092578;28;20023;-93
2023/02/07 11:30:13;;;;;;;22.02;9.27;;;4.10;99.90;;;;;;5099503;28;20173;-94
2023/02/07 11:32:39;;;;;;;18.10;9.70;;;4.20;99.90;;;;;;5099238;28;20107;-94
2023/02/07 11:35:15;;;;;;;18.05;10.98;;;4.30;99.90;;;;;;5079289;28;20036;-93
2023/02/07 11:38:01;;;;;;;15.43;8.77;;;4.40;99.90;;;;;;5099242;28;20467;-93
2023/02/07 11:40:47;;;;;;;15.63;9.00;;;4.50;99.90;;;;;;5101217;28;20102;-92
2023/02/07 11:43:18;;;;;;;13.73;8.80;;;4.70;99.90;;;;;;5093170;28;20456;-92
2023/02/07 11:45:48;;;;;;;15.52;9.10;;;4.80;99.90;;;;;;5100223;28;20016;-93
2023/02/07 11:48:21;;;;;;;15.48;8.40;;;4.90;99.90;;;;;;5099296;28;20016;-93
2023/02/07 11:50:52;;;;;;;13.07;7.90;;;5.00;99.90;;;;;;5094957;28;20015;-93
2023/02/07 11:53:38;;;;;;;12.50;7.75;;;5.10;99.90;;;;;;5120091;28;20080;-90
2023/02/07 11:56:04;;;;;;;16.67;7.70;;;5.20;99.90;;;;;;5099366;28;20031;-90
2023/02/07 11:58:47;;;;;;;14.10;8.75;;;5.30;99.90;;;;;;5099404;28;20469;-90
2023/02/07 12:01:17;;;;;;;11.57;7.68;;;5.50;99.90;;;;;;5098647;28;20039;-90
2023/02/07 12:04:09;;;;;;;12.98;7.72;;;5.60;99.90;;;;;;5099240;28;20024;-90
2023/02/07 12:06:51;;;;;;;12.35;7.45;;;5.70;99.90;;;;;;5100471;28;20030;-90
2023/02/07 12:09:42;;;;;;;13.88;8.48;;;5.80;99.90;;;;;;5119500;28;20055;-93
2023/02/07 12:12:46;;;;;;;14.38;7.60;;;6.00;99.90;;;;;;5108577;28;20097;-93
2023/02/07 12:15:24;;;;;;;12.70;7.15;;;6.00;99.90;;;;;;5099230;28;20036;-93
2023/02/07 12:18:08;;;;;;;12.15;8.05;;;6.10;99.90;;;;;;5107683;28;20030;-93
2023/02/07 12:20:52;;;;;;;14.40;8.35;;;6.20;99.90;;;;;;5099782;28;20030;-94
2023/02/07 12:23:52;;;;;;;13.70;8.10;;;6.30;99.90;;;;;;5093957;28;20107;-85
2023/02/07 12:26:46;;;;;;;12.70;8.40;;;6.40;99.90;;;;;;5091214;28;20080;-86
2023/02/07 12:29:23;;;;;;;14.07;8.60;;;6.40;99.90;;;;;;5115074;28;20091;-86
2023/02/07 12:31:55;;;;;;;14.45;8.10;;;6.50;99.90;;;;;;5097815;28;20043;-86
2023/02/07 12:34:57;;;;;;;12.35;7.85;;;6.60;99.90;;;;;;5098840;28;20032;-86
2023/02/07 12:37:41;;;;;;;12.95;7.93;;;6.70;99.90;;;;;;5093456;28;20059;-86
2023/02/07 12:40:07;;;;;;;14.80;8.20;;;6.80;99.90;;;;;;5099278;28;20031;-86
2023/02/07 12:42:51;;;;;;;12.57;8.32;;;6.90;99.90;;;;;;5100091;28;20047;-87
2023/02/07 12:45:50;;;;;;;13.63;8.57;;;7.00;99.90;;;;;;5098969;28;20063;-86
2023/02/07 12:48:24;;;;;;;13.48;8.68;;;7.20;99.90;;;;;;5104936;28;20043;-86
2023/02/07 12:51:14;;;;;;;13.95;8.10;;;7.30;99.90;;;;;;5097240;28;20499;-86
2023/02/07 12:53:52;;;;;;;14.55;9.02;;;7.40;99.90;;;;;;5094778;28;20032;-87
2023/02/07 12:56:32;;;;;;;14.27;9.07;;;7.50;99.90;;;;;;5098577;28;20034;-86
2023/02/07 12:59:26;;;;;;;12.63;8.10;;;7.50;99.90;;;;;;5097336;28;20031;-87